createdAt,value
2024-05-09T00:00:36.394Z,4.53
2024-05-09T00:03:07.898Z,4.73
2024-05-09T00:05:35.865Z,4.57
2024-05-09T00:08:03.028Z,4.27
2024-05-09T00:10:36.022Z,4.23
2024-05-09T00:13:09.000Z,5.20
2024-05-09T00:15:36.815Z,4.83
2024-05-09T00:18:04.984Z,4.40
2024-05-09T00:20:38.519Z,4.30
2024-05-09T00:23:12.013Z,4.83
2024-05-09T00:25:39.526Z,5.00
2024-05-09T00:28:06.824Z,5.23
2024-05-09T00:30:36.141Z,4.40
2024-05-09T00:33:06.217Z,4.63
2024-05-09T00:35:34.171Z,4.50
2024-05-09T00:38:01.315Z,4.90
2024-05-09T00:40:39.577Z,4.30
2024-05-09T00:43:08.908Z,4.03
2024-05-09T00:45:35.887Z,4.73
2024-05-09T00:48:06.732Z,4.03
2024-05-09T00:50:37.337Z,4.20
2024-05-09T00:53:08.430Z,4.10
2024-05-09T00:55:36.513Z,3.90
2024-05-09T00:58:04.993Z,3.93
2024-05-09T01:00:38.410Z,3.67
2024-05-09T01:03:08.833Z,3.97
2024-05-09T01:05:39.520Z,4.17
2024-05-09T01:08:07.909Z,3.80
2024-05-09T01:10:36.132Z,3.93
2024-05-09T01:13:04.338Z,3.93
2024-05-09T01:15:31.135Z,3.97
2024-05-09T01:17:58.618Z,3.90
2024-05-09T01:20:36.605Z,3.60
2024-05-09T01:23:09.949Z,4.50
2024-05-09T01:25:37.594Z,4.40
2024-05-09T01:28:04.529Z,4.30
2024-05-09T01:30:35.483Z,4.40
2024-05-09T01:33:10.002Z,4.00
2024-05-09T01:35:40.879Z,4.27
2024-05-09T01:38:08.628Z,4.23
2024-05-09T01:40:38.864Z,4.50
2024-05-09T01:43:11.069Z,3.80
2024-05-09T01:45:39.540Z,3.83
2024-05-09T01:48:07.035Z,4.70
2024-05-09T01:50:38.986Z,3.63
2024-05-09T01:53:14.486Z,4.00
2024-05-09T01:55:42.076Z,4.20
2024-05-09T01:58:09.641Z,3.73
2024-05-09T02:00:40.616Z,4.00
2024-05-09T02:03:12.301Z,4.10
2024-05-09T02:05:43.078Z,4.00
2024-05-09T02:08:16.736Z,3.80
2024-05-09T02:10:44.646Z,4.30
2024-05-09T02:13:12.042Z,3.53
2024-05-09T02:15:38.962Z,4.13
2024-05-09T02:18:05.772Z,4.87
2024-05-09T02:20:36.409Z,4.70
2024-05-09T02:23:06.192Z,4.10
2024-05-09T02:25:33.729Z,4.23
2024-05-09T02:28:00.314Z,4.00
2024-05-09T02:30:37.763Z,4.13
2024-05-09T02:33:09.189Z,4.77
2024-05-09T02:35:37.067Z,3.97
2024-05-09T02:38:04.548Z,4.80
2024-05-09T02:40:37.619Z,4.20
2024-05-09T02:43:10.560Z,4.47
2024-05-09T02:45:38.976Z,4.03
2024-05-09T02:48:06.601Z,4.80
2024-05-09T02:50:38.302Z,4.63
2024-05-09T02:53:13.997Z,3.90
2024-05-09T02:55:42.225Z,3.67
2024-05-09T02:58:10.395Z,4.10
2024-05-09T03:00:40.783Z,4.00
2024-05-09T03:03:12.403Z,4.17
2024-05-09T03:05:41.614Z,3.90
2024-05-09T03:08:08.719Z,4.43
2024-05-09T03:10:37.866Z,4.10
2024-05-09T03:13:14.549Z,4.40
2024-05-09T03:15:42.892Z,4.33
2024-05-09T03:18:10.128Z,5.07
2024-05-09T03:20:38.401Z,4.70
2024-05-09T03:23:08.099Z,3.73
2024-05-09T03:25:36.024Z,4.80
2024-05-09T03:28:02.781Z,5.00
2024-05-09T03:30:38.831Z,4.60
2024-05-09T03:33:19.993Z,4.90
2024-05-09T03:35:48.841Z,4.60
2024-05-09T03:38:16.255Z,4.77
2024-05-09T03:40:47.267Z,5.07
2024-05-09T03:43:14.588Z,4.87
2024-05-09T03:45:45.116Z,4.50
2024-05-09T03:48:12.221Z,4.50
2024-05-09T03:50:39.273Z,5.10
2024-05-09T03:53:07.474Z,5.47
2024-05-09T03:55:34.075Z,4.77
2024-05-09T03:58:00.765Z,5.23
2024-05-09T04:00:35.495Z,4.40
2024-05-09T04:03:08.480Z,4.53
2024-05-09T04:05:39.502Z,4.80
2024-05-09T04:08:06.644Z,5.30
2024-05-09T04:10:34.908Z,4.87
2024-05-09T04:13:03.458Z,4.70
2024-05-09T04:15:30.765Z,5.20
2024-05-09T04:17:57.846Z,4.23
2024-05-09T04:20:34.242Z,4.50
2024-05-09T04:23:07.080Z,5.47
2024-05-09T04:25:34.859Z,5.47
2024-05-09T04:28:01.556Z,4.80
2024-05-09T04:30:36.569Z,5.30
2024-05-09T04:33:08.364Z,5.40
2024-05-09T04:35:37.282Z,4.90
2024-05-09T04:38:05.531Z,5.20
2024-05-09T04:40:35.597Z,6.10
2024-05-09T04:43:05.292Z,5.50
2024-05-09T04:45:32.404Z,5.67
2024-05-09T04:47:59.287Z,5.40
2024-05-09T04:50:35.361Z,5.40
2024-05-09T04:53:06.466Z,5.60
2024-05-09T04:55:36.205Z,6.00
2024-05-09T04:58:03.118Z,5.67
2024-05-09T05:00:35.930Z,5.77
2024-05-09T05:03:13.908Z,5.60
2024-05-09T05:05:43.938Z,6.00
2024-05-09T05:08:13.235Z,5.50
2024-05-09T05:10:40.858Z,6.00
2024-05-09T05:13:20.759Z,5.47
2024-05-09T05:15:52.089Z,5.93
2024-05-09T05:18:19.422Z,5.70
2024-05-09T05:20:46.540Z,5.30
2024-05-09T05:23:15.840Z,6.47
2024-05-09T05:25:43.018Z,6.30
2024-05-09T05:28:10.275Z,5.67
2024-05-09T05:30:37.947Z,6.50
2024-05-09T05:33:06.267Z,6.70
2024-05-09T05:35:34.218Z,7.10
2024-05-09T05:38:01.072Z,7.30
2024-05-09T05:40:35.670Z,7.77
2024-05-09T05:43:11.268Z,7.00
2024-05-09T05:45:39.223Z,6.60
2024-05-09T05:48:07.566Z,7.50
2024-05-09T05:50:37.374Z,7.17
2024-05-09T05:53:07.519Z,7.17
2024-05-09T05:55:35.126Z,7.17
2024-05-09T05:58:02.393Z,5.90
2024-05-09T06:00:35.398Z,7.10
2024-05-09T06:03:05.922Z,6.47
2024-05-09T06:05:33.028Z,5.63
2024-05-09T06:07:59.860Z,5.83
2024-05-09T06:10:36.732Z,6.00
2024-05-09T06:13:05.967Z,5.47
2024-05-09T06:15:32.560Z,5.30
2024-05-09T06:17:59.462Z,5.90
2024-05-09T06:20:34.526Z,5.93
2024-05-09T06:23:04.790Z,5.90
2024-05-09T06:25:31.724Z,5.90
2024-05-09T06:27:59.768Z,7.20
2024-05-09T06:30:35.296Z,5.93
2024-05-09T06:33:07.319Z,6.07
2024-05-09T06:35:34.525Z,5.70
2024-05-09T06:38:01.587Z,5.97
2024-05-09T06:40:36.508Z,6.00
2024-05-09T06:43:10.421Z,6.83
2024-05-09T06:45:37.310Z,5.13
2024-05-09T06:48:04.473Z,5.50
2024-05-09T06:50:36.798Z,5.60
2024-05-09T06:53:05.279Z,6.17
2024-05-09T06:55:32.075Z,5.10
2024-05-09T06:57:59.009Z,5.60
2024-05-09T07:00:34.469Z,5.90
2024-05-09T07:03:15.275Z,6.37
2024-05-09T07:05:44.958Z,5.60
2024-05-09T07:08:13.434Z,5.90
2024-05-09T07:10:40.282Z,5.83
2024-05-09T07:13:11.033Z,5.17
2024-05-09T07:15:38.566Z,5.60
2024-05-09T07:18:15.551Z,6.20
2024-05-09T07:20:43.146Z,5.30
2024-05-09T07:23:10.818Z,5.13
2024-05-09T07:25:38.097Z,4.93
2024-05-09T07:28:05.278Z,5.20
2024-05-09T07:30:34.425Z,5.43
2024-05-09T07:33:03.112Z,5.57
2024-05-09T07:35:30.936Z,5.10
2024-05-09T07:37:58.198Z,5.00
2024-05-09T07:40:32.912Z,5.30
2024-05-09T07:43:07.876Z,5.73
2024-05-09T07:52:32.674Z,5.47
2024-05-09T07:55:53.853Z,5.40
2024-05-09T07:58:20.871Z,5.97
2024-05-09T08:00:47.563Z,5.90
2024-05-09T08:03:14.395Z,5.80
2024-05-09T08:05:41.418Z,5.37
2024-05-09T08:08:08.152Z,5.37
2024-05-09T08:10:35.342Z,5.13
2024-05-09T08:13:02.125Z,4.50
2024-05-09T08:15:28.980Z,5.17
2024-05-09T08:17:56.254Z,6.00
2024-05-09T08:20:30.909Z,5.17
2024-05-09T08:23:01.534Z,4.23
2024-05-09T08:25:28.864Z,5.10
2024-05-09T08:27:55.566Z,5.80
2024-05-09T08:30:30.078Z,4.13
2024-05-09T08:33:03.989Z,4.20
2024-05-09T08:35:30.698Z,5.20
2024-05-09T08:37:58.381Z,5.10
2024-05-09T08:40:32.837Z,5.37
2024-05-09T08:43:06.694Z,5.47
2024-05-09T08:45:35.527Z,4.33
2024-05-09T08:48:06.035Z,5.07
2024-05-09T08:50:38.691Z,4.93
2024-05-09T08:53:07.482Z,5.73
2024-05-09T08:55:35.852Z,5.43
2024-05-09T08:58:05.499Z,4.80
2024-05-09T09:00:36.992Z,4.73
2024-05-09T09:03:07.513Z,4.60
2024-05-09T09:05:38.598Z,3.63
2024-05-09T09:08:09.030Z,2.80
2024-05-09T09:10:37.866Z,4.23
2024-05-09T09:13:07.226Z,4.10
2024-05-09T09:15:34.330Z,5.80
2024-05-09T09:18:02.135Z,5.10
2024-05-09T09:20:36.379Z,4.60
2024-05-09T09:23:04.617Z,4.80
2024-05-09T09:25:31.945Z,4.93
2024-05-09T09:27:58.962Z,5.33
2024-05-09T09:30:36.250Z,6.07
2024-05-09T09:33:06.346Z,5.37
2024-05-09T09:35:34.121Z,6.10
2024-05-09T09:38:05.869Z,5.50
2024-05-09T09:40:40.820Z,6.43
2024-05-09T09:43:20.861Z,6.20
2024-05-09T09:45:53.244Z,5.10
2024-05-09T09:48:22.015Z,5.53
2024-05-09T09:50:51.390Z,5.00
2024-05-09T09:53:19.427Z,5.67
2024-05-09T09:55:46.842Z,4.57
2024-05-09T09:58:14.832Z,5.70
2024-05-09T10:00:42.350Z,4.97
2024-05-09T10:03:09.372Z,5.60
2024-05-09T10:05:37.009Z,5.10
2024-05-09T10:08:07.309Z,5.70
2024-05-09T10:10:35.409Z,6.23
2024-05-09T10:13:06.611Z,6.57
2024-05-09T10:15:48.359Z,8.20
2024-05-09T10:18:15.592Z,7.77
2024-05-09T10:20:49.324Z,6.47
2024-05-09T10:23:56.284Z,7.77
2024-05-09T10:26:34.030Z,7.67
2024-05-09T10:29:10.258Z,7.67
2024-05-09T10:31:40.988Z,6.90
2024-05-09T10:34:23.032Z,8.03
2024-05-09T10:36:54.421Z,7.10
2024-05-09T10:39:21.719Z,6.17
2024-05-09T10:41:49.415Z,7.57
2024-05-09T10:44:17.182Z,7.83
2024-05-09T10:46:45.946Z,7.50
2024-05-09T10:49:14.344Z,7.50
2024-05-09T10:51:44.883Z,7.70
2024-05-09T10:54:11.712Z,7.10
2024-05-09T10:56:38.454Z,7.40
2024-05-09T10:59:05.463Z,7.60
2024-05-09T11:01:32.436Z,6.97
2024-05-09T11:03:59.354Z,7.87
2024-05-09T11:06:26.790Z,8.30
2024-05-09T11:08:53.483Z,7.83
2024-05-09T11:11:20.442Z,7.43
2024-05-09T11:13:47.178Z,6.10
2024-05-09T11:16:21.948Z,7.03
2024-05-09T11:18:58.581Z,6.80
2024-05-09T11:21:25.779Z,7.13
2024-05-09T11:23:52.991Z,8.33
2024-05-09T11:26:21.511Z,7.53
2024-05-09T11:28:48.681Z,6.47
2024-05-09T11:31:15.423Z,7.40
2024-05-09T11:33:44.699Z,6.90
2024-05-09T11:36:11.991Z,7.50
2024-05-09T11:38:38.831Z,7.80
2024-05-09T11:41:05.923Z,8.40
2024-05-09T11:43:33.186Z,7.00
2024-05-09T11:46:00.862Z,6.87
2024-05-09T11:48:28.105Z,6.93
2024-05-09T11:50:57.117Z,6.37
2024-05-09T11:53:23.904Z,6.63
2024-05-09T11:55:50.689Z,6.70
2024-05-09T11:58:18.896Z,6.43
2024-05-09T12:00:46.889Z,6.10
2024-05-09T12:03:14.182Z,5.67
2024-05-09T12:05:41.007Z,6.30
2024-05-09T12:08:08.043Z,6.00
2024-05-09T12:10:36.241Z,5.40
2024-05-09T12:13:05.903Z,5.40
2024-05-09T12:15:36.214Z,6.00
2024-05-09T12:18:04.580Z,5.10
2024-05-09T12:20:37.064Z,6.80
2024-05-09T12:23:06.935Z,6.47
2024-05-09T12:25:33.700Z,6.67
2024-05-09T12:28:00.642Z,7.20
2024-05-09T12:30:36.115Z,7.10
2024-05-09T12:33:07.907Z,7.47
2024-05-09T12:35:34.913Z,6.50
2024-05-09T12:38:01.592Z,6.80
2024-05-09T12:40:35.640Z,6.30
2024-05-09T12:43:05.976Z,6.77
2024-05-09T12:45:33.027Z,7.00
2024-05-09T12:48:00.006Z,8.00
2024-05-09T12:50:32.431Z,7.10
2024-05-09T12:53:01.720Z,7.50
2024-05-09T12:55:33.503Z,7.63
2024-05-09T12:58:07.048Z,7.33
2024-05-09T13:00:34.574Z,7.73
2024-05-09T13:03:01.876Z,7.77
2024-05-09T13:05:29.687Z,6.87
2024-05-09T13:07:57.200Z,7.03
2024-05-09T13:10:31.274Z,7.97
2024-05-09T13:13:00.492Z,6.87
2024-05-09T13:15:27.588Z,7.20
2024-05-09T13:17:56.397Z,6.90
2024-05-09T13:20:31.649Z,7.23
2024-05-09T13:23:05.761Z,7.23
2024-05-09T13:25:34.909Z,7.67
2024-05-09T13:28:03.262Z,6.23
2024-05-09T13:30:38.544Z,7.20
2024-05-09T13:33:09.310Z,7.50
2024-05-09T13:35:36.668Z,6.40
2024-05-09T13:38:04.601Z,6.97
2024-05-09T13:40:34.831Z,6.97
2024-05-09T13:43:05.743Z,7.33
2024-05-09T13:45:33.217Z,7.80
2024-05-09T13:48:00.645Z,6.90
2024-05-09T13:50:33.663Z,5.60
2024-05-09T13:53:03.253Z,5.87
2024-05-09T13:55:29.933Z,6.03
2024-05-09T13:57:56.715Z,5.87
2024-05-09T14:00:37.795Z,6.20
2024-05-09T14:03:10.804Z,6.20
2024-05-09T14:05:37.911Z,6.17
2024-05-09T14:08:05.397Z,5.73
2024-05-09T14:10:32.643Z,6.13
2024-05-09T14:13:00.978Z,6.03
2024-05-09T14:15:27.847Z,5.40
2024-05-09T14:17:55.479Z,6.00
2024-05-09T14:20:30.419Z,5.60
2024-05-09T14:22:59.954Z,5.00
2024-05-09T14:25:31.764Z,5.57
2024-05-09T14:27:58.715Z,5.50
2024-05-09T14:30:34.182Z,6.30
2024-05-09T14:33:05.216Z,4.90
2024-05-09T14:35:32.409Z,6.40
2024-05-09T14:37:59.289Z,6.33
2024-05-09T14:40:36.508Z,5.80
2024-05-09T14:43:08.731Z,5.40
2024-05-09T14:45:35.921Z,4.80
2024-05-09T14:48:03.968Z,5.50
2024-05-09T14:50:36.191Z,6.30
2024-05-09T14:53:10.465Z,6.80
2024-05-09T14:55:40.464Z,6.23
2024-05-09T14:58:09.705Z,5.90
2024-05-09T15:00:45.733Z,6.70
2024-05-09T15:03:16.422Z,8.17
2024-05-09T15:05:43.835Z,7.57
2024-05-09T15:08:10.626Z,7.40
2024-05-09T15:10:38.636Z,7.70
2024-05-09T15:13:07.917Z,8.00
2024-05-09T15:15:36.661Z,7.97
2024-05-09T15:18:04.902Z,8.60
2024-05-09T15:20:35.667Z,8.20
2024-05-09T15:23:05.709Z,8.83
2024-05-09T15:25:33.692Z,8.40
2024-05-09T15:28:00.863Z,8.97
2024-05-09T15:30:31.992Z,9.20
2024-05-09T15:33:03.197Z,9.10
2024-05-09T15:35:29.945Z,8.17
2024-05-09T15:37:56.771Z,8.40
2024-05-09T15:40:34.455Z,6.97
2024-05-09T15:43:06.212Z,6.90
2024-05-09T15:45:34.267Z,8.10
2024-05-09T15:48:02.455Z,8.37
2024-05-09T15:50:36.900Z,9.27
2024-05-09T15:53:07.942Z,7.93
2024-05-09T15:55:35.593Z,8.77
2024-05-09T15:58:04.553Z,7.63
2024-05-09T16:03:01.245Z,8.60
2024-05-09T16:05:28.262Z,8.77
2024-05-09T16:07:55.100Z,7.37
2024-05-09T16:10:25.986Z,8.70
2024-05-09T16:12:58.751Z,9.60
2024-05-09T16:15:25.496Z,9.20
2024-05-09T16:17:52.247Z,8.40
2024-05-09T16:20:29.925Z,9.10
2024-05-09T16:23:05.381Z,9.10
2024-05-09T16:25:32.106Z,8.50
2024-05-09T16:27:59.074Z,7.80
2024-05-09T16:30:32.139Z,7.80
2024-05-09T16:33:03.005Z,7.60
2024-05-09T16:35:30.268Z,8.20
2024-05-09T16:37:57.245Z,7.70
2024-05-09T16:40:34.219Z,7.87
2024-05-09T16:43:06.519Z,8.20
2024-05-09T16:45:33.635Z,7.10
2024-05-09T16:48:02.154Z,7.90
2024-05-09T16:50:33.705Z,7.70
2024-05-09T16:53:03.720Z,8.50
2024-05-09T16:55:30.663Z,8.83
2024-05-09T16:57:58.439Z,8.37
2024-05-09T17:00:35.821Z,8.40
2024-05-09T17:03:09.761Z,9.03
2024-05-09T17:05:37.120Z,8.33
2024-05-09T17:08:04.438Z,8.30
2024-05-09T17:10:33.815Z,9.30
2024-05-09T17:13:07.209Z,9.23
2024-05-09T17:15:36.801Z,8.90
2024-05-09T17:18:05.206Z,9.70
2024-05-09T17:20:35.286Z,9.20
2024-05-09T17:23:05.655Z,8.50
2024-05-09T17:25:33.193Z,8.33
2024-05-09T17:28:06.404Z,7.90
2024-05-09T17:30:36.969Z,7.50
2024-05-09T17:33:06.519Z,6.97
2024-05-09T17:35:33.350Z,7.07
2024-05-09T17:38:01.544Z,6.43
2024-05-09T17:40:33.547Z,7.23
2024-05-09T17:43:04.099Z,6.83
2024-05-09T17:45:31.766Z,7.00
2024-05-09T17:47:59.181Z,6.50
2024-05-09T17:50:33.441Z,6.40
2024-05-09T17:53:02.970Z,7.70
2024-05-09T17:55:29.951Z,6.87
2024-05-09T17:57:57.247Z,7.30
2024-05-09T18:00:33.511Z,7.13
2024-05-09T18:03:06.642Z,7.67
2024-05-09T18:05:35.585Z,6.97
2024-05-09T18:08:03.293Z,6.97
2024-05-09T18:10:35.992Z,6.20
2024-05-09T18:13:06.484Z,6.27
2024-05-09T18:15:33.663Z,6.30
2024-05-09T18:18:01.425Z,7.30
2024-05-09T18:20:37.745Z,6.63
2024-05-09T18:23:10.278Z,6.33
2024-05-09T18:25:37.228Z,6.77
2024-05-09T18:28:04.424Z,5.90
2024-05-09T18:30:34.596Z,6.47
2024-05-09T18:33:03.955Z,6.40
2024-05-09T18:35:30.974Z,6.30
2024-05-09T18:37:57.660Z,6.53
2024-05-09T18:40:32.598Z,7.07
2024-05-09T18:43:03.498Z,6.70
2024-05-09T18:45:30.643Z,6.63
2024-05-09T18:47:57.769Z,6.20
2024-05-09T18:50:33.736Z,5.63
2024-05-09T18:53:05.990Z,6.23
2024-05-09T18:55:32.744Z,6.20
2024-05-09T18:57:59.944Z,6.70
2024-05-09T19:00:33.881Z,5.50
2024-05-09T19:03:05.908Z,5.80
2024-05-09T19:05:35.282Z,7.00
2024-05-09T19:08:03.058Z,6.27
2024-05-09T19:10:34.268Z,5.97
2024-05-09T19:13:05.763Z,6.20
2024-05-09T19:15:36.081Z,6.00
2024-05-09T19:18:03.575Z,6.10
2024-05-09T19:20:34.479Z,6.47
2024-05-09T19:23:02.678Z,5.90
2024-05-09T19:25:29.399Z,5.93
2024-05-09T19:27:56.179Z,6.17
2024-05-09T19:30:30.417Z,6.23
2024-05-09T19:33:05.963Z,5.40
2024-05-09T19:35:33.198Z,5.60
2024-05-09T19:38:00.225Z,5.63
2024-05-09T19:40:31.544Z,5.40
2024-05-09T19:43:01.576Z,6.30
2024-05-09T19:45:29.053Z,5.80
2024-05-09T19:47:56.038Z,5.93
2024-05-09T19:50:31.599Z,6.10
2024-05-09T19:53:04.775Z,5.90
2024-05-09T19:55:31.395Z,6.77
2024-05-09T19:57:59.049Z,7.87
2024-05-09T20:00:32.795Z,7.73
2024-05-09T20:03:02.780Z,8.03
2024-05-09T20:05:32.614Z,7.57
2024-05-09T20:07:59.781Z,8.57
2024-05-09T20:10:31.674Z,7.20
2024-05-09T20:13:00.838Z,8.97
2024-05-09T20:15:27.660Z,9.00
2024-05-09T20:17:55.126Z,7.60
2024-05-09T20:22:51.932Z,7.20
2024-05-09T20:25:18.808Z,7.70
2024-05-09T20:27:45.675Z,8.10
2024-05-09T20:30:17.045Z,6.50
2024-05-09T20:32:48.171Z,6.97
2024-05-09T20:35:14.926Z,6.80
2024-05-09T20:37:41.568Z,7.40
2024-05-09T20:40:15.354Z,7.30
2024-05-09T20:42:45.384Z,6.90
2024-05-09T20:45:12.128Z,6.50
2024-05-09T20:47:38.793Z,6.63
2024-05-09T20:50:11.373Z,6.80
2024-05-09T20:52:43.259Z,6.30
2024-05-09T20:55:10.141Z,7.70
2024-05-09T20:57:36.918Z,7.50
2024-05-09T21:00:05.787Z,7.27
2024-05-09T21:02:38.174Z,7.70
2024-05-09T21:05:05.193Z,6.80
2024-05-09T21:07:32.516Z,7.13
2024-05-09T21:09:59.356Z,7.10
2024-05-09T21:12:26.082Z,6.70
2024-05-09T21:14:52.882Z,6.93
2024-05-09T21:17:19.897Z,6.77
2024-05-09T21:19:46.617Z,7.83
2024-05-09T21:22:13.389Z,6.93
2024-05-09T21:24:40.023Z,8.00
2024-05-09T21:27:06.702Z,7.57
2024-05-09T21:29:33.428Z,7.20
2024-05-09T21:32:00.196Z,7.33
2024-05-09T21:34:26.875Z,7.30
2024-05-09T21:36:53.566Z,6.53
2024-05-09T21:39:20.224Z,7.80
2024-05-09T21:41:47.048Z,5.80
2024-05-09T21:44:13.645Z,7.17
2024-05-09T21:46:40.515Z,7.13
2024-05-09T21:49:07.271Z,6.50
2024-05-09T21:51:34.025Z,7.17
2024-05-09T21:54:01.126Z,6.93
2024-05-09T21:56:28.014Z,6.47
2024-05-09T21:58:54.592Z,7.33
2024-05-09T22:01:22.324Z,6.57
2024-05-09T22:03:49.176Z,6.53
2024-05-09T22:06:16.100Z,6.80
2024-05-09T22:08:42.744Z,6.20
2024-05-09T22:11:09.466Z,6.70
2024-05-09T22:13:36.150Z,6.00
2024-05-09T22:16:04.102Z,6.93
2024-05-09T22:18:30.810Z,6.27
2024-05-09T22:20:57.761Z,5.53
2024-05-09T22:23:24.351Z,6.10
2024-05-09T22:25:51.048Z,6.03
2024-05-09T22:28:18.028Z,6.63
2024-05-09T22:30:46.221Z,6.50
2024-05-09T22:33:14.928Z,6.10
2024-05-09T22:35:41.918Z,5.93
2024-05-09T22:38:08.934Z,6.23
2024-05-09T22:40:46.599Z,5.00
2024-05-09T22:43:24.214Z,5.73
2024-05-09T22:45:55.598Z,5.20
2024-05-09T22:48:23.860Z,5.20
2024-05-09T22:50:51.676Z,5.93
2024-05-09T22:53:18.500Z,6.40
2024-05-09T22:55:45.143Z,6.70
2024-05-09T22:58:11.783Z,6.50
2024-05-09T23:00:38.610Z,6.27
2024-05-09T23:03:06.161Z,6.37
2024-05-09T23:05:33.215Z,6.10
2024-05-09T23:08:01.785Z,6.10
2024-05-09T23:10:35.539Z,5.87
2024-05-09T23:13:05.820Z,5.87
2024-05-09T23:15:32.743Z,5.50
2024-05-09T23:17:59.555Z,7.10
2024-05-09T23:20:33.936Z,6.47
2024-05-09T23:23:05.844Z,5.80
2024-05-09T23:25:32.686Z,6.53
2024-05-09T23:27:59.376Z,6.30
2024-05-09T23:30:36.108Z,6.90
2024-05-09T23:33:06.498Z,5.60
2024-05-09T23:35:33.305Z,5.50
2024-05-09T23:38:00.037Z,6.27
2024-05-09T23:40:35.077Z,5.27
2024-05-09T23:43:05.863Z,5.50
2024-05-09T23:45:32.744Z,5.30
2024-05-09T23:47:59.947Z,6.00
2024-05-09T23:50:33.800Z,5.93
2024-05-09T23:53:03.433Z,5.33
2024-05-09T23:55:31.307Z,5.10
2024-05-09T23:57:58.275Z,5.67
